createdAt,value
2023-01-20T01:26:06.916Z,100697.28
2023-01-20T01:33:19.117Z,100694.69
2023-01-20T02:12:06.963Z,100724.72
2023-01-20T02:24:48.638Z,100730.97
2023-01-20T02:46:08.454Z,100743.91
2023-01-20T02:50:16.884Z,100750.78
2023-01-20T02:53:26.040Z,100752.47
2023-01-20T02:57:31.607Z,100754.25
2023-01-20T03:09:29.694Z,100755.16
2023-01-20T03:13:34.605Z,100762.09
2023-01-20T03:17:01.261Z,100763.88
2023-01-20T03:20:12.519Z,100772.47
2023-01-20T03:24:44.647Z,100773.31
2023-01-20T03:27:58.522Z,100776.81
2023-01-20T03:32:19.093Z,100782.84
2023-01-20T03:36:16.443Z,100782.88
2023-01-20T12:46:14.314Z,101463.81
2023-01-20T12:55:01.545Z,101469.03
2023-01-20T12:58:40.591Z,101479.38
2023-01-20T13:06:45.995Z,101486.31
2023-01-20T13:10:13.849Z,101496.66
2023-01-20T13:13:56.459Z,101500.13
2023-01-20T13:17:28.402Z,101508.75
2023-01-20T13:20:46.787Z,101518.25
2023-01-20T13:24:06.118Z,101517.38
2023-01-20T13:32:02.330Z,101538.09
2023-01-20T13:35:26.833Z,101541.53
2023-01-20T13:38:44.325Z,101550.19
2023-01-20T13:42:16.747Z,101546.75
2023-01-20T13:45:59.405Z,101569.16
2023-01-20T13:49:29.958Z,101569.16
2023-01-20T13:52:58.647Z,101565.72
2023-01-20T13:56:25.059Z,101570.03
2023-01-20T13:59:36.775Z,101575.19
2023-01-20T14:03:04.259Z,101576.06
2023-01-20T14:06:22.622Z,101577.78
2023-01-20T14:09:41.667Z,101587.28
2023-01-20T14:12:49.344Z,101589.88
2023-01-20T14:15:59.044Z,101600.22
2023-01-20T14:19:34.493Z,101600.25
2023-01-20T14:22:46.324Z,101620.06
2023-01-20T14:30:04.668Z,101632.16
2023-01-20T14:33:25.542Z,101634.75
2023-01-20T14:36:39.364Z,101648.56
2023-01-20T14:40:04.788Z,101659.78
2023-01-20T14:43:38.290Z,101660.66
2023-01-20T14:50:21.444Z,101671.03
2023-01-20T14:53:29.146Z,101677.91
2023-01-20T14:56:38.698Z,101674.47
2023-01-20T14:59:48.322Z,101690.88
2023-01-20T15:03:15.532Z,101698.66
2023-01-20T15:06:27.305Z,101692.63
2023-01-20T15:09:37.301Z,101708.16
2023-01-20T15:12:56.045Z,101719.34
2023-01-20T15:16:48.879Z,101725.41
2023-01-20T15:19:58.433Z,101725.41
2023-01-20T15:23:34.684Z,101746.97
2023-01-20T15:26:42.746Z,101740.09
2023-01-20T15:30:18.100Z,101753.84
2023-01-20T15:33:34.224Z,101757.31
2023-01-20T15:36:46.832Z,101766.81
2023-01-20T15:39:54.690Z,101779.75
2023-01-20T15:43:03.725Z,101779.78
2023-01-20T15:46:13.297Z,101784.97
2023-01-20T15:49:29.747Z,101791.00
2023-01-20T15:52:46.515Z,101791.03
2023-01-20T15:55:57.461Z,101802.28
2023-01-20T15:59:13.355Z,101796.19
2023-01-20T16:02:23.802Z,101805.69
2023-01-20T16:05:28.952Z,101800.53
2023-01-20T16:08:41.425Z,101810.84
2023-01-20T16:11:49.349Z,101815.13
2023-01-20T16:14:55.801Z,101820.31
2023-01-20T16:18:07.613Z,101830.66
2023-01-20T16:21:18.053Z,101835.00
2023-01-20T16:24:26.072Z,101842.78
2023-01-20T16:27:30.781Z,101840.13
2023-01-20T16:30:35.625Z,101851.41
2023-01-20T16:33:40.371Z,101860.94
2023-01-20T16:36:45.240Z,101868.66
2023-01-20T16:39:53.249Z,101878.16
2023-01-20T16:43:01.865Z,101885.03
2023-01-20T16:46:16.909Z,101891.88
2023-01-20T16:49:22.827Z,101904.91
2023-01-20T16:52:27.450Z,101900.59
2023-01-20T16:55:32.038Z,101906.63
2023-01-20T16:58:36.345Z,101912.63
2023-01-20T17:01:41.160Z,101916.09
2023-01-20T17:04:45.455Z,101922.19
2023-01-20T17:07:53.780Z,101926.53
2023-01-20T17:10:58.484Z,101931.63
2023-01-20T17:14:06.052Z,101938.56
2023-01-20T17:17:10.796Z,101934.22
2023-01-20T17:20:16.024Z,101943.63
2023-01-20T17:23:20.633Z,101943.69
2023-01-20T17:26:25.309Z,101964.50
2023-01-20T17:29:29.397Z,101968.81
2023-01-20T17:32:37.596Z,101974.03
2023-01-20T17:35:43.114Z,101981.75
2023-01-20T17:38:47.864Z,101986.09
2023-01-20T17:41:52.154Z,101988.72
2023-01-20T17:45:01.328Z,101994.78
2023-01-20T17:48:06.079Z,101995.63
2023-01-20T17:51:17.190Z,101994.72
2023-01-20T17:54:21.499Z,102005.03
2023-01-20T17:57:27.111Z,102006.75
2023-01-20T18:00:31.518Z,102020.59
2023-01-20T18:03:35.769Z,102030.03
2023-01-20T18:06:40.314Z,102029.19
2023-01-20T18:09:45.335Z,102045.56
2023-01-20T18:12:49.820Z,102040.34
2023-01-20T18:15:54.028Z,102046.41
2023-01-20T18:18:59.141Z,102045.56
2023-01-20T18:22:07.012Z,102054.22
2023-01-20T18:25:12.232Z,102058.50
2023-01-20T18:28:16.617Z,102063.66
2023-01-20T18:31:24.374Z,102066.34
2023-01-20T18:34:29.153Z,102074.16
2023-01-20T18:37:33.911Z,102080.16
2023-01-20T18:40:38.234Z,102077.53
2023-01-20T18:43:42.676Z,102083.56
2023-01-20T18:46:47.217Z,102090.50
2023-01-20T18:49:51.900Z,102087.88
2023-01-20T18:52:56.314Z,102092.16
2023-01-20T18:56:06.566Z,102110.31
2023-01-20T18:59:12.136Z,102108.59
2023-01-20T19:02:16.604Z,102118.03
2023-01-20T19:05:20.846Z,102123.22
2023-01-20T19:08:27.077Z,102119.72
2023-01-20T19:11:36.262Z,102125.81
2023-01-20T19:14:49.745Z,102128.41
2023-01-20T19:17:56.459Z,102139.59
2023-01-20T19:21:06.326Z,102140.41
2023-01-20T19:24:19.703Z,102139.56
2023-01-20T19:27:26.357Z,102150.78
2023-01-20T19:30:31.046Z,102151.66
2023-01-20T19:33:37.844Z,102154.28
2023-01-20T19:36:42.554Z,102158.59
2023-01-20T19:39:48.156Z,102164.69
2023-01-20T19:42:52.704Z,102159.47
2023-01-20T19:46:04.143Z,102168.06
2023-01-20T19:49:11.088Z,102175.00
2023-01-20T19:52:15.596Z,102178.47
2023-01-20T19:55:19.647Z,102170.63
2023-01-20T19:58:24.028Z,102171.47
2023-01-20T20:01:32.141Z,102174.09
2023-01-20T20:04:36.892Z,102187.91
2023-01-20T20:07:43.796Z,102191.38
2023-01-20T20:10:48.205Z,102206.91
2023-01-20T20:14:00.606Z,102204.25
2023-01-20T20:17:06.627Z,102209.50
2023-01-20T20:20:11.309Z,102211.22
2023-01-20T20:23:17.919Z,102210.28
2023-01-20T20:26:24.390Z,102222.41
2023-01-20T20:29:28.995Z,102223.25
2023-01-20T20:32:33.092Z,102223.28
2023-01-20T20:35:47.779Z,102217.34
2023-01-20T20:38:53.997Z,102226.91
2023-01-20T20:41:58.689Z,102233.84
2023-01-20T20:45:03.059Z,102226.94
2023-01-20T20:48:09.874Z,102244.25
2023-01-20T20:51:16.501Z,102252.06
2023-01-20T20:54:21.004Z,102256.41
2023-01-20T20:57:25.549Z,102259.00
2023-01-20T21:00:30.258Z,102271.09
2023-01-20T21:03:35.072Z,102273.63
2023-01-20T21:06:39.511Z,102280.47
2023-01-20T21:09:45.395Z,102283.09
2023-01-20T21:12:49.870Z,102289.25
2023-01-20T21:16:03.706Z,102287.50
2023-01-20T21:19:09.111Z,102287.59
2023-01-20T21:22:14.248Z,102291.91
2023-01-20T21:25:18.833Z,102294.41
2023-01-20T21:28:24.597Z,102297.91
2023-01-20T21:31:30.961Z,102303.06
2023-01-20T21:34:35.510Z,102304.81
2023-01-20T21:37:39.855Z,102306.56
2023-01-20T21:40:59.796Z,102306.66
2023-01-20T21:44:23.340Z,102318.75
2023-01-20T21:47:27.791Z,102319.47
2023-01-20T21:50:50.278Z,102317.75
2023-01-20T21:53:55.241Z,102325.47
2023-01-20T21:57:01.149Z,102333.22
2023-01-20T22:00:08.706Z,102327.97
2023-01-20T22:03:13.230Z,102328.88
2023-01-20T22:06:17.368Z,102347.00
2023-01-20T22:09:21.612Z,102342.72
2023-01-20T22:12:25.983Z,102352.34
2023-01-20T22:15:30.404Z,102353.19
2023-01-20T22:18:34.596Z,102350.50
2023-01-20T22:21:39.029Z,102348.84
2023-01-20T22:24:44.903Z,102354.88
2023-01-20T22:27:49.518Z,102354.84
2023-01-20T22:30:54.007Z,102350.50
2023-01-20T22:33:59.385Z,102354.00
2023-01-20T22:37:03.526Z,102362.69
2023-01-20T22:40:08.805Z,102360.13
2023-01-20T22:43:13.146Z,102368.75
2023-01-20T22:46:20.871Z,102370.50
2023-01-20T22:49:25.634Z,102379.09
2023-01-20T22:52:30.510Z,102380.75
2023-01-20T22:55:34.845Z,102378.16
2023-01-20T22:58:40.499Z,102380.78
2023-01-20T23:01:45.154Z,102391.06
2023-01-20T23:04:49.634Z,102391.97
2023-01-20T23:07:54.290Z,102393.59
2023-01-20T23:11:03.468Z,102403.03
2023-01-20T23:14:12.725Z,102409.16
2023-01-20T23:17:17.427Z,102404.84
2023-01-20T23:20:21.884Z,102408.28
2023-01-20T23:23:27.527Z,102411.69
2023-01-20T23:26:32.983Z,102416.09
2023-01-20T23:29:37.685Z,102425.59
2023-01-20T23:32:42.130Z,102422.09
2023-01-20T23:35:46.413Z,102426.59
2023-01-20T23:38:53.829Z,102425.72
2023-01-20T23:42:09.141Z,102424.94
2023-01-20T23:45:13.892Z,102428.34
2023-01-20T23:48:18.197Z,102432.66
2023-01-20T23:51:22.676Z,102435.94
2023-01-20T23:54:26.848Z,102438.53
2023-01-20T23:57:31.164Z,102441.25
